createdAt,value
2022-08-07T00:00:26.513Z,6.93
2022-08-07T00:02:39.761Z,3.55
2022-08-07T00:02:56.124Z,8.88
2022-08-07T00:05:00.181Z,3.45
2022-08-07T00:05:24.726Z,3.53
2022-08-07T00:07:27.683Z,3.17
2022-08-07T00:08:00.318Z,4.55
2022-08-07T00:10:26.217Z,3.08
2022-08-07T00:10:31.427Z,4.35
2022-08-07T00:12:59.747Z,2.38
2022-08-07T00:13:09.734Z,7.40
2022-08-07T00:15:38.170Z,3.30
2022-08-07T00:15:51.517Z,2.67
2022-08-07T00:18:24.345Z,5.78
2022-08-07T00:20:49.476Z,2.95
2022-08-07T00:20:56.709Z,5.25
2022-08-07T00:23:17.271Z,2.28
2022-08-07T00:23:25.068Z,4.40
2022-08-07T00:25:45.853Z,2.75
2022-08-07T00:26:00.100Z,5.00
2022-08-07T00:28:33.208Z,3.50
2022-08-07T00:28:33.958Z,5.93
2022-08-07T00:31:05.793Z,3.45
2022-08-07T00:31:06.087Z,6.05
2022-08-07T00:33:34.974Z,2.85
2022-08-07T00:33:35.641Z,6.63
2022-08-07T00:36:03.431Z,2.40
2022-08-07T00:36:03.897Z,4.68
2022-08-07T00:38:31.105Z,4.88
2022-08-07T00:38:33.318Z,6.32
2022-08-07T00:40:59.605Z,2.28
2022-08-07T00:41:02.072Z,4.72
2022-08-07T00:44:00.598Z,4.65
2022-08-07T00:44:01.684Z,2.33
2022-08-07T00:46:14.371Z,3.95
2022-08-07T00:46:17.505Z,4.40
2022-08-07T00:48:42.368Z,3.60
2022-08-07T00:48:45.557Z,5.60
2022-08-07T00:51:09.731Z,2.45
2022-08-07T00:51:17.681Z,6.88
2022-08-07T00:53:38.512Z,3.03
2022-08-07T00:53:55.137Z,7.25
2022-08-07T00:56:13.720Z,3.38
2022-08-07T00:56:30.328Z,7.60
2022-08-07T00:58:43.783Z,6.13
2022-08-07T00:59:02.161Z,5.88
2022-08-07T01:01:15.425Z,2.80
2022-08-07T01:01:30.078Z,6.28
2022-08-07T01:03:55.333Z,2.85
2022-08-07T01:04:11.950Z,6.45
2022-08-07T01:06:26.351Z,2.63
2022-08-07T01:06:52.302Z,5.47
2022-08-07T01:08:55.639Z,2.97
2022-08-07T01:10:04.180Z,7.00
2022-08-07T01:12:23.646Z,3.08
2022-08-07T01:12:30.177Z,6.57
2022-08-07T01:14:15.523Z,4.55
2022-08-07T01:15:00.962Z,3.60
2022-08-07T01:16:47.179Z,5.45
2022-08-07T01:17:31.131Z,5.70
2022-08-07T01:19:18.884Z,4.03
2022-08-07T01:20:16.697Z,4.32
2022-08-07T01:21:53.210Z,2.88
2022-08-07T01:22:57.823Z,5.68
2022-08-07T01:24:27.579Z,3.67
2022-08-07T01:25:54.727Z,6.30
2022-08-07T01:26:59.732Z,2.88
2022-08-07T01:28:23.317Z,7.05
2022-08-07T01:29:31.436Z,2.53
2022-08-07T01:30:54.996Z,4.03
2022-08-07T01:32:05.294Z,2.50
2022-08-07T01:33:53.544Z,4.32
2022-08-07T01:34:33.675Z,3.20
2022-08-07T01:36:16.783Z,4.50
2022-08-07T01:37:09.662Z,3.90
2022-08-07T01:38:46.301Z,4.78
2022-08-07T01:39:41.280Z,2.63
2022-08-07T01:41:26.220Z,5.80
2022-08-07T01:42:40.308Z,3.05
2022-08-07T01:43:57.492Z,5.30
2022-08-07T01:45:22.748Z,5.22
2022-08-07T01:46:26.627Z,8.57
2022-08-07T01:48:18.300Z,3.20
2022-08-07T01:48:55.510Z,6.95
2022-08-07T01:50:47.063Z,3.78
2022-08-07T01:52:01.786Z,5.05
2022-08-07T01:53:21.942Z,2.67
2022-08-07T01:54:32.680Z,8.00
2022-08-07T01:56:22.331Z,3.05
2022-08-07T01:57:24.570Z,5.30
2022-08-07T01:59:05.972Z,3.17
2022-08-07T02:00:03.189Z,7.65
2022-08-07T02:02:00.014Z,4.35
2022-08-07T02:03:18.856Z,4.53
2022-08-07T02:04:35.410Z,3.45
2022-08-07T02:05:59.580Z,7.80
2022-08-07T02:07:06.190Z,2.72
2022-08-07T02:09:53.149Z,5.53
2022-08-07T02:12:29.363Z,3.45
2022-08-07T02:15:00.853Z,3.85
2022-08-07T02:17:49.474Z,3.00
2022-08-07T02:20:23.279Z,2.80
2022-08-07T02:22:57.627Z,3.60
2022-08-07T02:26:10.618Z,3.97
2022-08-07T02:28:25.674Z,3.15
2022-08-07T02:31:10.341Z,2.97
2022-08-07T02:34:01.843Z,3.08
2022-08-07T02:36:33.839Z,2.72
2022-08-07T02:39:16.137Z,3.45
2022-08-07T02:41:50.752Z,2.80
2022-08-07T02:44:27.590Z,4.07
2022-08-07T02:47:05.507Z,5.15
2022-08-07T02:49:56.409Z,2.72
2022-08-07T02:52:31.054Z,3.60
2022-08-07T02:55:27.760Z,3.17
2022-08-07T02:58:04.429Z,4.82
2022-08-07T03:00:34.971Z,3.67
2022-08-07T03:03:06.361Z,3.13
2022-08-07T03:05:37.905Z,5.22
2022-08-07T03:08:10.477Z,3.95
2022-08-07T03:10:46.925Z,4.22
2022-08-07T03:13:19.541Z,4.03
2022-08-07T03:15:56.235Z,3.45
2022-08-07T03:18:35.085Z,3.55
2022-08-07T03:21:08.726Z,4.25
2022-08-07T03:24:20.055Z,4.32
2022-08-07T03:26:32.092Z,4.18
2022-08-07T03:29:03.109Z,4.43
2022-08-07T03:31:42.659Z,3.95
2022-08-07T03:34:18.828Z,3.60
2022-08-07T03:36:53.284Z,3.17
2022-08-07T03:39:46.189Z,5.80
2022-08-07T03:42:11.955Z,4.55
2022-08-07T03:44:40.537Z,6.03
2022-08-07T03:47:11.343Z,5.93
2022-08-07T03:49:51.901Z,3.75
2022-08-07T03:52:27.361Z,3.92
2022-08-07T03:55:06.271Z,5.25
2022-08-07T03:58:34.396Z,5.50
2022-08-07T04:00:29.206Z,6.78
2022-08-07T04:03:03.759Z,4.32
2022-08-07T04:05:40.131Z,5.63
2022-08-07T04:08:16.163Z,5.22
2022-08-07T04:10:54.831Z,6.03
2022-08-07T04:14:09.430Z,4.38
2022-08-07T04:16:30.963Z,4.35
2022-08-07T04:19:04.137Z,3.80
2022-08-07T04:21:58.948Z,4.43
2022-08-07T04:24:38.805Z,4.35
2022-08-07T04:27:20.341Z,4.22
2022-08-07T04:30:02.011Z,5.47
2022-08-07T04:32:58.198Z,5.22
2022-08-07T04:35:28.646Z,4.50
2022-08-07T04:38:08.191Z,6.13
2022-08-07T04:40:52.073Z,5.38
2022-08-07T04:44:09.791Z,5.90
2022-08-07T04:47:04.400Z,5.72
2022-08-07T04:50:04.539Z,4.47
2022-08-07T04:52:50.991Z,8.13
2022-08-07T04:58:10.699Z,9.80
2022-08-07T04:59:17.057Z,7.13
2022-08-07T05:02:11.291Z,10.05
2022-08-07T05:04:50.867Z,7.13
2022-08-07T05:07:36.480Z,8.88
2022-08-07T05:10:11.786Z,7.78
2022-08-07T05:12:53.815Z,8.80
2022-08-07T05:15:31.240Z,7.00
2022-08-07T05:18:09.017Z,7.45
2022-08-07T05:20:43.620Z,7.82
2022-08-07T05:23:29.936Z,9.17
2022-08-07T05:26:13.447Z,9.20
2022-08-07T05:28:50.344Z,10.07
2022-08-07T05:34:04.836Z,9.65
2022-08-07T05:36:39.107Z,11.80
2022-08-07T05:40:13.804Z,10.68
2022-08-07T05:42:07.546Z,12.00
2022-08-07T05:44:46.370Z,10.60
2022-08-07T05:47:19.936Z,11.82
2022-08-07T05:49:52.112Z,11.15
2022-08-07T05:52:32.293Z,11.35
2022-08-07T05:55:07.045Z,10.68
2022-08-07T05:57:41.941Z,11.88
2022-08-07T06:00:16.337Z,12.63
2022-08-07T06:02:53.689Z,13.23
2022-08-07T06:05:28.376Z,11.57
2022-08-07T06:08:13.869Z,10.98
2022-08-07T06:10:51.263Z,10.38
2022-08-07T06:14:10.996Z,10.88
2022-08-07T06:16:13.289Z,10.98
2022-08-07T06:18:43.307Z,10.77
2022-08-07T06:22:14.806Z,10.75
2022-08-07T06:24:37.509Z,11.50
2022-08-07T06:26:54.940Z,12.20
2022-08-07T06:29:27.625Z,10.88
2022-08-07T06:31:55.908Z,11.82
2022-08-07T06:34:29.750Z,11.35
2022-08-07T06:36:58.818Z,11.38
2022-08-07T06:40:17.984Z,10.97
2022-08-07T06:42:39.201Z,12.02
2022-08-07T06:45:18.213Z,11.90
2022-08-07T06:47:59.013Z,10.98
2022-08-07T06:50:43.082Z,11.63
2022-08-07T06:53:18.796Z,12.47
2022-08-07T06:56:03.991Z,12.98
2022-08-07T07:01:11.969Z,12.20
2022-08-07T07:03:49.089Z,13.43
2022-08-07T07:06:26.252Z,11.63
2022-08-07T07:08:55.070Z,11.50
2022-08-07T07:12:08.991Z,11.48
2022-08-07T07:14:14.106Z,12.55
2022-08-07T07:16:51.133Z,10.13
2022-08-07T07:19:57.119Z,13.05
2022-08-07T07:22:36.533Z,9.43
2022-08-07T07:26:30.416Z,10.23
2022-08-07T07:28:02.317Z,14.52
2022-08-07T07:30:40.053Z,10.65
2022-08-07T07:33:11.449Z,9.00
2022-08-07T07:35:54.151Z,9.73
2022-08-07T07:38:31.130Z,9.85
2022-08-07T07:41:03.296Z,10.50
2022-08-07T07:44:14.568Z,8.32
2022-08-07T07:46:53.319Z,9.50
2022-08-07T07:50:32.675Z,10.23
2022-08-07T07:52:01.092Z,7.75
2022-08-07T07:54:31.587Z,8.48
2022-08-07T07:57:01.817Z,9.27
2022-08-07T07:59:52.224Z,7.97
2022-08-07T08:02:22.489Z,8.57
2022-08-07T08:05:03.830Z,9.38
2022-08-07T08:07:35.734Z,10.20
2022-08-07T08:10:14.904Z,10.50
2022-08-07T08:13:02.859Z,7.43
2022-08-07T08:15:58.713Z,7.10
2022-08-07T08:18:25.002Z,6.35
2022-08-07T08:20:54.055Z,6.63
2022-08-07T08:23:41.096Z,6.50
2022-08-07T08:26:28.004Z,6.90
2022-08-07T08:28:59.140Z,6.10
2022-08-07T08:31:30.175Z,6.82
2022-08-07T08:34:27.314Z,6.30
2022-08-07T08:36:58.408Z,5.18
2022-08-07T08:39:39.240Z,5.30
2022-08-07T08:42:36.752Z,4.65
2022-08-07T08:45:18.436Z,6.05
2022-08-07T08:48:21.296Z,5.07
2022-08-07T08:51:03.405Z,4.53
2022-08-07T08:53:57.722Z,6.53
2022-08-07T08:56:36.092Z,3.70
2022-08-07T08:59:16.420Z,3.95
2022-08-07T09:02:00.331Z,3.83
2022-08-07T09:04:54.718Z,4.93
2022-08-07T09:07:46.336Z,4.47
2022-08-07T09:10:33.996Z,4.18
2022-08-07T09:13:14.674Z,5.72
2022-08-07T09:16:22.759Z,3.78
2022-08-07T09:19:07.349Z,5.10
2022-08-07T09:24:27.497Z,3.55
2022-08-07T09:25:21.508Z,4.32
2022-08-07T09:28:01.900Z,4.60
2022-08-07T09:30:54.552Z,5.88
2022-08-07T09:33:52.588Z,3.05
2022-08-07T09:36:35.796Z,3.30
2022-08-07T09:39:55.250Z,6.18
2022-08-07T09:42:41.218Z,2.97
2022-08-07T09:47:55.115Z,1.97
2022-08-07T09:48:29.950Z,3.75
2022-08-07T09:52:16.324Z,3.85
2022-08-07T09:54:30.049Z,1.83
2022-08-07T09:57:13.052Z,3.50
2022-08-07T10:00:03.715Z,4.17
2022-08-07T10:04:03.830Z,2.85
2022-08-07T10:06:25.704Z,5.63
2022-08-07T10:09:08.570Z,4.32
2022-08-07T10:12:15.193Z,5.07
2022-08-07T10:15:15.158Z,2.22
2022-08-07T10:18:28.722Z,3.30
2022-08-07T10:21:19.897Z,5.25
2022-08-07T10:24:17.162Z,3.25
2022-08-07T10:27:11.113Z,4.05
2022-08-07T10:30:00.569Z,2.80
2022-08-07T10:33:00.235Z,3.28
2022-08-07T10:35:55.047Z,3.97
2022-08-07T10:38:49.067Z,3.53
2022-08-07T10:41:45.979Z,2.88
2022-08-07T10:44:45.228Z,3.75
2022-08-07T10:47:27.206Z,3.15
2022-08-07T10:50:09.529Z,2.90
2022-08-07T10:52:51.340Z,2.50
2022-08-07T10:55:37.179Z,2.58
2022-08-07T10:58:36.447Z,2.22
2022-08-07T11:01:26.101Z,2.70
2022-08-07T11:04:31.925Z,3.50
2022-08-07T11:07:56.968Z,2.80
2022-08-07T11:10:13.269Z,4.22
2022-08-07T11:13:03.841Z,4.38
2022-08-07T11:15:35.809Z,4.32
2022-08-07T11:18:29.220Z,4.05
2022-08-07T11:21:04.253Z,2.88
2022-08-07T11:24:16.990Z,4.40
2022-08-07T11:27:09.372Z,4.40
2022-08-07T11:30:18.752Z,6.13
2022-08-07T11:32:58.489Z,5.57
2022-08-07T11:35:30.511Z,3.30
2022-08-07T11:38:10.221Z,3.35
2022-08-07T11:41:02.049Z,2.67
2022-08-07T11:44:11.379Z,4.13
2022-08-07T11:46:48.964Z,2.78
2022-08-07T11:50:18.649Z,2.30
2022-08-07T11:52:29.034Z,2.47
2022-08-07T11:56:15.503Z,2.85
2022-08-07T11:58:49.706Z,2.92
2022-08-07T12:01:59.319Z,3.78
2022-08-07T12:04:43.028Z,2.88
2022-08-07T12:07:27.255Z,3.70
2022-08-07T12:10:13.665Z,2.20
2022-08-07T12:12:47.756Z,2.38
2022-08-07T12:15:57.927Z,2.67
2022-08-07T12:18:16.117Z,3.08
2022-08-07T12:21:02.067Z,2.70
2022-08-07T12:24:04.845Z,2.70
2022-08-07T12:26:34.403Z,2.47
2022-08-07T12:29:37.145Z,4.40
2022-08-07T12:32:43.868Z,3.72
2022-08-07T12:35:13.296Z,2.97
2022-08-07T12:38:10.714Z,4.45
2022-08-07T12:40:47.654Z,3.10
2022-08-07T12:44:01.779Z,3.35
2022-08-07T12:46:36.946Z,2.75
2022-08-07T12:49:50.987Z,3.85
2022-08-07T12:52:34.039Z,2.13
2022-08-07T12:55:09.339Z,2.22
2022-08-07T12:58:01.141Z,2.47
2022-08-07T13:00:41.732Z,3.25
2022-08-07T13:03:54.745Z,3.60
2022-08-07T13:07:01.726Z,1.95
2022-08-07T13:10:29.378Z,2.40
2022-08-07T13:13:02.769Z,2.28
2022-08-07T13:15:48.557Z,3.35
2022-08-07T13:18:31.264Z,2.70
2022-08-07T13:21:12.591Z,3.10
2022-08-07T13:24:01.217Z,2.95
2022-08-07T13:26:46.220Z,2.63
2022-08-07T13:29:51.269Z,2.55
2022-08-07T13:32:43.374Z,4.20
2022-08-07T13:35:24.691Z,2.15
2022-08-07T13:38:21.624Z,3.05
2022-08-07T13:41:17.484Z,3.40
2022-08-07T13:43:52.859Z,2.33
2022-08-07T13:46:33.828Z,2.38
2022-08-07T13:49:08.667Z,5.25
2022-08-07T13:52:23.112Z,2.10
2022-08-07T13:54:43.140Z,2.00
2022-08-07T13:57:24.208Z,4.40
2022-08-07T13:59:55.817Z,2.20
2022-08-07T14:02:33.426Z,2.45
2022-08-07T14:05:13.189Z,2.75
2022-08-07T14:07:59.943Z,3.80
2022-08-07T14:10:42.439Z,2.88
2022-08-07T14:13:17.928Z,2.33
2022-08-07T14:15:57.015Z,1.77
2022-08-07T14:18:34.777Z,2.47
2022-08-07T14:22:41.250Z,1.95
2022-08-07T14:24:22.889Z,4.03
2022-08-07T14:26:54.521Z,2.60
2022-08-07T14:30:06.432Z,3.67
2022-08-07T14:32:20.542Z,2.65
2022-08-07T14:34:54.845Z,3.78
2022-08-07T14:37:39.259Z,2.92
2022-08-07T14:40:26.726Z,3.55
2022-08-07T14:45:51.316Z,2.58
2022-08-07T14:48:33.241Z,1.90
2022-08-07T14:51:05.144Z,2.20
2022-08-07T14:56:30.349Z,1.90
2022-08-07T14:59:04.473Z,3.00
2022-08-07T15:01:51.418Z,2.70
2022-08-07T15:04:19.857Z,1.88
2022-08-07T15:06:52.896Z,2.03
2022-08-07T15:09:58.997Z,2.83
2022-08-07T15:12:25.820Z,2.33
2022-08-07T15:15:08.180Z,1.60
2022-08-07T15:17:54.675Z,3.33
2022-08-07T15:20:33.688Z,2.00
2022-08-07T15:23:17.111Z,2.53
2022-08-07T15:25:55.578Z,2.00
2022-08-07T15:28:34.551Z,3.20
2022-08-07T15:31:12.170Z,2.90
2022-08-07T15:33:42.820Z,2.30
2022-08-07T15:36:11.656Z,2.60
2022-08-07T15:38:59.324Z,2.15
2022-08-07T15:42:43.316Z,4.97
2022-08-07T15:44:21.157Z,2.92
2022-08-07T15:50:05.069Z,2.92
2022-08-07T15:52:36.403Z,1.63
2022-08-07T15:55:11.374Z,3.13
2022-08-07T15:57:48.617Z,2.10
2022-08-07T16:00:31.897Z,2.97
2022-08-07T16:05:49.929Z,2.45
2022-08-07T16:08:31.178Z,3.33
2022-08-07T16:11:26.981Z,3.88
2022-08-07T16:14:03.534Z,2.17
2022-08-07T16:16:48.006Z,2.42
2022-08-07T16:20:33.954Z,2.47
2022-08-07T16:23:54.187Z,1.98
2022-08-07T16:26:10.579Z,3.25
2022-08-07T16:30:05.550Z,2.33
2022-08-07T16:32:01.460Z,2.50
2022-08-07T16:34:36.750Z,1.85
2022-08-07T16:38:09.238Z,2.20
2022-08-07T16:40:33.958Z,3.05
2022-08-07T16:44:03.909Z,2.13
2022-08-07T16:47:07.821Z,2.33
2022-08-07T16:50:28.730Z,1.60
2022-08-07T16:52:57.487Z,3.17
2022-08-07T16:55:43.787Z,1.95
2022-08-07T16:59:14.567Z,1.80
2022-08-07T17:01:59.399Z,2.10
2022-08-07T17:04:57.799Z,2.95
2022-08-07T17:07:55.412Z,4.32
2022-08-07T17:10:34.704Z,2.03
2022-08-07T17:13:21.223Z,2.40
2022-08-07T17:16:05.644Z,2.95
2022-08-07T17:18:46.129Z,2.33
2022-08-07T17:21:26.495Z,3.50
2022-08-07T17:24:14.442Z,2.38
2022-08-07T17:26:55.035Z,3.22
2022-08-07T17:30:15.817Z,4.75
2022-08-07T17:34:08.819Z,2.72
2022-08-07T17:36:20.087Z,2.05
2022-08-07T17:39:10.452Z,2.90
2022-08-07T17:42:01.767Z,2.30
2022-08-07T17:44:49.463Z,2.28
2022-08-07T17:50:19.469Z,2.45
2022-08-07T17:53:07.391Z,3.85
2022-08-07T17:55:54.778Z,3.75
2022-08-07T17:58:50.541Z,1.80
2022-08-07T18:01:34.795Z,2.38
2022-08-07T18:04:37.350Z,1.67
2022-08-07T18:07:20.299Z,2.33
2022-08-07T18:10:06.824Z,2.47
2022-08-07T18:12:58.646Z,2.88
2022-08-07T18:15:32.933Z,1.70
2022-08-07T18:18:46.955Z,2.70
2022-08-07T18:21:27.458Z,2.22
2022-08-07T18:24:07.355Z,3.88
2022-08-07T18:26:41.351Z,2.10
2022-08-07T18:30:04.203Z,3.00
2022-08-07T18:32:20.485Z,2.25
2022-08-07T18:35:13.026Z,2.67
2022-08-07T18:38:57.158Z,1.60
2022-08-07T18:43:57.570Z,2.42
2022-08-07T18:46:37.152Z,3.25
2022-08-07T18:50:19.123Z,1.80
2022-08-07T18:52:53.896Z,1.90
2022-08-07T18:56:00.213Z,2.53
2022-08-07T18:58:51.653Z,2.72
2022-08-07T19:02:20.181Z,2.45
2022-08-07T19:04:57.615Z,1.77
2022-08-07T19:07:53.802Z,4.47
2022-08-07T19:10:31.603Z,3.85
2022-08-07T19:13:11.817Z,2.42
2022-08-07T19:16:04.329Z,3.17
2022-08-07T19:18:54.301Z,3.67
2022-08-07T19:21:56.838Z,3.28
2022-08-07T19:24:43.550Z,2.95
2022-08-07T19:28:58.336Z,6.80
2022-08-07T19:31:05.414Z,2.20
2022-08-07T19:33:12.855Z,4.20
2022-08-07T19:35:46.124Z,2.58
2022-08-07T19:38:17.743Z,2.40
2022-08-07T19:40:50.230Z,2.45
2022-08-07T19:43:48.860Z,3.72
2022-08-07T19:46:18.980Z,4.82
2022-08-07T19:48:54.155Z,2.85
2022-08-07T19:51:51.927Z,5.55
2022-08-07T19:54:44.344Z,2.97
2022-08-07T19:57:56.736Z,5.45
2022-08-07T19:59:59.384Z,3.65
2022-08-07T20:02:54.520Z,2.95
2022-08-07T20:06:30.501Z,3.47
2022-08-07T20:10:33.662Z,3.92
2022-08-07T20:12:31.494Z,4.70
2022-08-07T20:14:54.166Z,4.47
2022-08-07T20:17:26.813Z,2.87
2022-08-07T20:19:58.278Z,3.63
2022-08-07T20:22:34.038Z,3.40
2022-08-07T20:25:18.371Z,4.10
2022-08-07T20:30:34.437Z,3.53
2022-08-07T20:33:05.579Z,5.22
2022-08-07T20:35:54.541Z,3.70
2022-08-07T20:38:29.618Z,3.10
2022-08-07T20:41:03.905Z,3.83
2022-08-07T20:43:34.885Z,4.05
2022-08-07T20:46:30.042Z,4.15
2022-08-07T20:49:55.116Z,5.65
2022-08-07T20:51:50.672Z,3.60
2022-08-07T20:54:29.732Z,3.10
2022-08-07T20:57:03.235Z,3.38
2022-08-07T21:00:07.237Z,3.63
2022-08-07T21:02:54.238Z,6.40
2022-08-07T21:05:50.882Z,3.75
2022-08-07T21:08:19.885Z,5.55
2022-08-07T21:11:01.679Z,3.45
2022-08-07T21:13:43.880Z,3.90
2022-08-07T21:16:33.391Z,5.20
2022-08-07T21:19:02.736Z,5.32
2022-08-07T21:21:33.277Z,6.80
2022-08-07T21:24:42.138Z,4.00
2022-08-07T21:27:26.263Z,6.38
2022-08-07T21:30:10.855Z,4.30
2022-08-07T21:33:01.312Z,5.13
2022-08-07T21:36:05.226Z,4.50
2022-08-07T21:38:46.363Z,6.18
2022-08-07T21:42:01.246Z,5.05
2022-08-07T21:44:41.833Z,4.78
2022-08-07T21:47:36.226Z,5.55
2022-08-07T21:50:14.745Z,7.40
2022-08-07T21:53:11.489Z,6.30
2022-08-07T21:56:01.820Z,4.90
2022-08-07T21:58:46.584Z,5.00
2022-08-07T22:02:07.486Z,7.50
2022-08-07T22:04:23.137Z,5.90
2022-08-07T22:07:05.590Z,5.00
2022-08-07T22:09:53.617Z,4.90
2022-08-07T22:12:27.453Z,5.38
2022-08-07T22:16:44.473Z,5.15
2022-08-07T22:18:02.697Z,4.40
2022-08-07T22:21:20.484Z,6.22
2022-08-07T22:24:11.967Z,4.78
2022-08-07T22:26:50.274Z,5.18
2022-08-07T22:29:33.687Z,6.28
2022-08-07T22:32:43.905Z,6.93
2022-08-07T22:35:11.543Z,4.97
2022-08-07T22:38:10.348Z,7.22
2022-08-07T22:41:02.829Z,7.13
2022-08-07T22:43:42.265Z,6.85
2022-08-07T22:46:46.803Z,6.50
2022-08-07T22:49:19.899Z,4.05
2022-08-07T22:52:34.609Z,5.78
2022-08-07T22:55:23.473Z,5.25
2022-08-07T22:58:23.288Z,5.97
2022-08-07T23:01:23.419Z,5.15
2022-08-07T23:04:09.464Z,6.50
2022-08-07T23:07:40.448Z,4.68
2022-08-07T23:10:37.987Z,6.55
2022-08-07T23:13:18.652Z,7.07
2022-08-07T23:16:46.840Z,7.13
2022-08-07T23:19:51.678Z,5.20
2022-08-07T23:22:32.571Z,5.50
2022-08-07T23:25:20.915Z,7.20
2022-08-07T23:28:21.917Z,5.32
2022-08-07T23:31:13.869Z,6.20
2022-08-07T23:34:23.710Z,6.35
2022-08-07T23:37:31.923Z,5.82
2022-08-07T23:40:17.663Z,6.00
2022-08-07T23:43:17.438Z,6.72
2022-08-07T23:46:02.831Z,6.53
2022-08-07T23:48:58.892Z,8.60
2022-08-07T23:53:16.847Z,7.68
2022-08-07T23:54:46.815Z,7.80
2022-08-07T23:57:36.208Z,8.48
